createdAt,value
2019-03-23T00:00:40.745Z,27.82
2019-03-23T00:03:13.364Z,28.00
2019-03-23T00:05:46.034Z,27.40
2019-03-23T00:08:18.674Z,28.55
2019-03-23T00:10:51.631Z,29.18
2019-03-23T00:13:24.256Z,29.75
2019-03-23T00:15:56.911Z,31.10
2019-03-23T00:18:29.549Z,33.33
2019-03-23T00:21:02.264Z,33.60
2019-03-23T00:23:35.073Z,32.05
2019-03-23T00:26:08.922Z,34.33
2019-03-23T00:28:41.949Z,35.63
2019-03-23T00:31:14.677Z,32.95
2019-03-23T00:33:47.361Z,32.50
2019-03-23T00:36:20.080Z,33.00
2019-03-23T00:38:52.697Z,36.40
2019-03-23T00:41:26.067Z,33.60
2019-03-23T00:43:58.961Z,33.18
2019-03-23T00:46:31.683Z,30.92
2019-03-23T00:49:04.295Z,31.37
2019-03-23T00:51:36.938Z,30.35
2019-03-23T00:54:09.568Z,30.27
2019-03-23T00:56:42.550Z,29.82
2019-03-23T00:59:15.186Z,29.07
2019-03-23T01:01:47.839Z,26.42
2019-03-23T01:04:21.045Z,28.12
2019-03-23T01:06:55.243Z,29.00
2019-03-23T01:09:27.878Z,28.32
2019-03-23T01:12:00.997Z,27.30
2019-03-23T01:14:33.942Z,27.50
2019-03-23T01:17:06.590Z,28.75
2019-03-23T01:19:39.253Z,28.60
2019-03-23T01:22:12.181Z,30.25
2019-03-23T01:24:44.847Z,29.80
2019-03-23T01:27:17.750Z,28.70
2019-03-23T01:29:50.698Z,28.20
2019-03-23T01:32:24.004Z,28.73
2019-03-23T01:34:57.203Z,28.32
2019-03-23T01:37:29.837Z,30.72
2019-03-23T01:40:02.823Z,31.37
2019-03-23T01:42:35.442Z,31.02
2019-03-23T01:45:10.258Z,28.92
2019-03-23T01:47:43.289Z,29.35
2019-03-23T01:50:16.449Z,28.07
2019-03-23T01:52:49.202Z,27.95
2019-03-23T01:55:21.867Z,28.62
2019-03-23T01:57:54.765Z,29.85
2019-03-23T02:00:27.860Z,29.12
2019-03-23T02:03:01.106Z,29.52
2019-03-23T02:05:33.785Z,29.75
2019-03-23T02:08:07.014Z,28.40
2019-03-23T02:10:41.860Z,28.45
2019-03-23T02:13:13.994Z,29.72
2019-03-23T02:15:46.905Z,27.87
2019-03-23T02:18:19.587Z,29.12
2019-03-23T02:20:52.396Z,28.35
2019-03-23T02:23:25.009Z,29.25
2019-03-23T02:25:57.655Z,29.90
2019-03-23T02:28:30.283Z,29.50
2019-03-23T02:31:03.730Z,29.15
2019-03-23T02:33:36.341Z,28.65
2019-03-23T02:36:09.285Z,28.47
2019-03-23T02:38:43.029Z,27.93
2019-03-23T02:41:15.977Z,26.48
2019-03-23T02:43:48.605Z,28.15
2019-03-23T02:46:21.257Z,27.52
2019-03-23T02:48:53.919Z,28.55
2019-03-23T02:51:26.913Z,27.85
2019-03-23T02:53:59.533Z,28.32
2019-03-23T02:56:32.318Z,27.02
2019-03-23T02:59:04.945Z,26.60
2019-03-23T03:01:37.718Z,27.05
2019-03-23T03:04:10.594Z,26.70
2019-03-23T03:06:43.273Z,26.87
2019-03-23T03:09:16.332Z,27.73
2019-03-23T03:11:49.304Z,27.35
2019-03-23T03:14:22.002Z,27.70
2019-03-23T03:16:54.650Z,27.40
2019-03-23T03:19:27.551Z,28.55
2019-03-23T03:22:00.923Z,27.13
2019-03-23T03:24:33.552Z,27.52
2019-03-23T03:27:06.527Z,25.88
2019-03-23T03:29:39.157Z,29.07
2019-03-23T03:32:12.440Z,28.45
2019-03-23T03:34:45.043Z,28.05
2019-03-23T03:37:17.681Z,31.77
2019-03-23T03:39:50.332Z,28.17
2019-03-23T03:42:22.938Z,28.25
2019-03-23T03:44:55.571Z,29.80
2019-03-23T03:47:28.173Z,28.07
2019-03-23T03:50:00.843Z,28.70
2019-03-23T03:52:33.451Z,29.82
2019-03-23T03:55:06.354Z,30.68
2019-03-23T03:57:39.042Z,30.57
2019-03-23T04:00:12.217Z,27.60
2019-03-23T04:02:44.843Z,27.48
2019-03-23T04:05:17.494Z,27.87
2019-03-23T04:07:50.107Z,29.70
2019-03-23T04:10:22.791Z,28.73
2019-03-23T04:12:55.691Z,27.00
2019-03-23T04:15:28.664Z,29.63
2019-03-23T04:18:01.245Z,29.42
2019-03-23T04:20:33.934Z,28.30
2019-03-23T04:23:07.230Z,28.20
2019-03-23T04:25:39.863Z,27.73
2019-03-23T04:28:13.054Z,27.15
2019-03-23T04:30:45.656Z,27.73
2019-03-23T04:33:18.304Z,27.30
2019-03-23T04:35:51.175Z,28.05
2019-03-23T04:38:23.837Z,28.10
2019-03-23T04:40:56.573Z,28.17
2019-03-23T04:43:29.518Z,28.38
2019-03-23T04:46:02.212Z,27.75
2019-03-23T04:48:34.878Z,29.90
2019-03-23T04:51:07.533Z,29.70
2019-03-23T04:53:40.160Z,30.02
2019-03-23T04:56:12.790Z,29.02
2019-03-23T04:58:45.457Z,30.15
2019-03-23T05:01:18.313Z,29.77
2019-03-23T05:03:51.082Z,37.63
2019-03-23T05:06:23.683Z,31.85
2019-03-23T05:08:56.581Z,31.55
2019-03-23T05:11:29.162Z,31.93
2019-03-23T05:14:01.872Z,34.63
2019-03-23T05:16:34.473Z,35.45
2019-03-23T05:19:08.196Z,34.20
2019-03-23T05:21:40.796Z,32.88
2019-03-23T05:24:13.443Z,33.50
2019-03-23T05:26:47.426Z,32.40
2019-03-23T05:29:20.290Z,32.00
2019-03-23T05:31:53.029Z,31.25
2019-03-23T05:34:29.165Z,32.33
2019-03-23T05:37:04.754Z,31.70
2019-03-23T05:39:37.391Z,31.27
2019-03-23T05:42:10.017Z,31.87
2019-03-23T05:44:42.630Z,30.92
2019-03-23T05:47:15.367Z,31.30
2019-03-23T05:49:47.988Z,30.50
2019-03-23T05:52:20.642Z,31.82
2019-03-23T05:54:53.225Z,33.13
2019-03-23T05:57:26.143Z,32.03
2019-03-23T05:59:58.756Z,31.55
2019-03-23T06:02:31.386Z,32.00
2019-03-23T06:05:04.225Z,32.30
2019-03-23T06:07:36.810Z,32.65
2019-03-23T06:10:09.616Z,33.88
2019-03-23T06:12:42.192Z,35.33
2019-03-23T06:15:14.994Z,35.05
2019-03-23T06:17:47.595Z,34.20
2019-03-23T06:20:20.384Z,34.43
2019-03-23T06:22:52.969Z,37.28
2019-03-23T06:25:26.609Z,34.65
2019-03-23T06:27:59.813Z,34.58
2019-03-23T06:30:32.473Z,34.10
2019-03-23T06:33:05.544Z,34.00
2019-03-23T06:35:38.164Z,34.23
2019-03-23T06:38:11.709Z,31.93
2019-03-23T06:40:44.334Z,32.85
2019-03-23T06:43:17.022Z,36.50
2019-03-23T06:45:49.930Z,36.17
2019-03-23T06:48:22.896Z,34.63
2019-03-23T06:50:55.666Z,34.50
2019-03-23T06:53:28.334Z,34.65
2019-03-23T06:56:00.975Z,32.88
2019-03-23T06:58:34.002Z,32.23
2019-03-23T07:01:06.633Z,32.42
2019-03-23T07:03:39.282Z,31.97
2019-03-23T07:06:11.901Z,30.72
2019-03-23T07:08:44.957Z,33.20
2019-03-23T07:11:17.589Z,37.42
2019-03-23T07:13:50.308Z,36.93
2019-03-23T07:16:24.937Z,32.83
2019-03-23T07:18:57.828Z,33.67
2019-03-23T07:21:30.781Z,30.75
2019-03-23T07:24:03.483Z,33.33
2019-03-23T07:26:36.166Z,31.77
2019-03-23T07:29:10.063Z,33.60
2019-03-23T07:31:42.676Z,32.80
2019-03-23T07:34:15.378Z,35.03
2019-03-23T07:36:47.989Z,35.27
2019-03-23T07:39:28.022Z,32.20
2019-03-23T07:41:55.298Z,32.50
2019-03-23T07:44:27.995Z,32.50
2019-03-23T07:47:00.634Z,32.50
2019-03-23T07:49:33.315Z,31.60
2019-03-23T07:52:05.984Z,31.60
2019-03-23T07:54:39.007Z,30.33
2019-03-23T07:57:12.064Z,31.03
2019-03-23T07:59:45.030Z,31.93
2019-03-23T08:02:17.661Z,30.70
2019-03-23T08:04:50.358Z,29.80
2019-03-23T08:07:22.979Z,31.40
2019-03-23T08:09:55.983Z,31.73
2019-03-23T08:12:29.285Z,28.70
2019-03-23T08:17:40.110Z,33.97
2019-03-23T08:20:13.264Z,30.57
2019-03-23T08:22:45.917Z,29.60
2019-03-23T08:25:18.830Z,32.07
2019-03-23T08:27:51.589Z,32.33
2019-03-23T08:30:24.212Z,33.63
2019-03-23T08:32:57.490Z,37.57
2019-03-23T08:35:30.409Z,39.00
2019-03-23T08:38:03.358Z,36.20
2019-03-23T08:40:36.049Z,34.67
2019-03-23T08:43:08.773Z,33.63
2019-03-23T08:45:41.667Z,32.37
2019-03-23T08:48:14.815Z,33.83
2019-03-23T08:50:47.867Z,30.97
2019-03-23T08:53:20.514Z,32.07
2019-03-23T08:55:53.108Z,32.27
2019-03-23T08:58:29.892Z,33.07
2019-03-23T09:01:02.838Z,32.60
2019-03-23T09:03:36.002Z,32.40
2019-03-23T09:06:08.721Z,32.13
2019-03-23T09:08:41.374Z,32.27
2019-03-23T09:11:20.457Z,32.10
2019-03-23T09:13:48.508Z,32.97
2019-03-23T09:16:21.417Z,33.27
2019-03-23T09:18:54.071Z,34.10
2019-03-23T09:21:26.679Z,32.20
2019-03-23T09:23:59.448Z,33.10
2019-03-23T09:26:32.070Z,33.07
2019-03-23T09:29:04.725Z,32.03
2019-03-23T09:31:37.326Z,31.17
2019-03-23T09:34:10.442Z,34.10
2019-03-23T09:36:43.057Z,34.77
2019-03-23T09:39:15.720Z,31.63
2019-03-23T09:41:48.343Z,33.27
2019-03-23T09:44:21.382Z,32.03
2019-03-23T09:46:54.294Z,32.87
2019-03-23T09:49:27.212Z,32.43
2019-03-23T09:52:01.099Z,34.53
2019-03-23T09:54:35.280Z,33.33
2019-03-23T09:57:09.127Z,33.33
2019-03-23T09:59:44.264Z,35.53
2019-03-23T10:02:16.878Z,35.40
2019-03-23T10:04:50.596Z,35.40
2019-03-23T10:07:23.255Z,33.83
2019-03-23T10:09:56.122Z,34.80
2019-03-23T10:12:28.795Z,35.00
2019-03-23T10:15:01.702Z,35.03
2019-03-23T10:17:34.460Z,34.50
2019-03-23T10:20:08.278Z,36.40
2019-03-23T10:22:41.178Z,36.97
2019-03-23T10:25:14.815Z,33.63
2019-03-23T10:27:47.442Z,35.93
2019-03-23T10:30:20.038Z,35.17
2019-03-23T10:35:30.455Z,34.10
2019-03-23T10:38:03.377Z,34.87
2019-03-23T10:40:35.971Z,34.67
2019-03-23T10:43:08.905Z,34.17
2019-03-23T10:45:44.314Z,33.90
2019-03-23T10:48:16.384Z,32.70
2019-03-23T10:50:49.120Z,33.43
2019-03-23T10:53:23.281Z,33.77
2019-03-23T10:55:56.139Z,33.50
2019-03-23T10:58:28.780Z,34.67
2019-03-23T11:01:01.367Z,35.80
2019-03-23T11:03:33.995Z,34.23
2019-03-23T11:06:06.918Z,34.83
2019-03-23T11:08:39.544Z,33.67
2019-03-23T11:11:12.552Z,35.30
2019-03-23T11:13:45.596Z,34.23
2019-03-23T11:16:18.183Z,34.87
2019-03-23T11:18:50.818Z,35.90
2019-03-23T11:21:23.433Z,34.13
2019-03-23T11:23:56.056Z,36.10
2019-03-23T11:26:28.648Z,35.70
2019-03-23T11:29:01.298Z,35.33
2019-03-23T11:31:34.235Z,34.57
2019-03-23T11:34:17.226Z,34.30
2019-03-23T11:36:41.625Z,33.33
2019-03-23T11:39:14.271Z,33.57
2019-03-23T11:41:47.181Z,35.67
2019-03-23T11:44:22.155Z,37.63
2019-03-23T11:46:54.754Z,35.77
2019-03-23T11:49:27.693Z,36.50
2019-03-23T11:52:00.282Z,34.63
2019-03-23T11:54:32.897Z,35.57
2019-03-23T11:57:05.820Z,34.77
2019-03-23T11:59:39.107Z,36.30
2019-03-23T12:02:11.804Z,33.03
2019-03-23T12:04:45.698Z,32.47
2019-03-23T12:07:18.288Z,35.80
2019-03-23T12:09:50.925Z,35.10
2019-03-23T12:12:23.557Z,33.70
2019-03-23T12:14:56.260Z,33.20
2019-03-23T12:17:28.843Z,35.60
2019-03-23T12:20:01.727Z,35.70
2019-03-23T12:22:34.679Z,37.80
2019-03-23T12:25:08.002Z,37.37
2019-03-23T12:27:40.616Z,34.43
2019-03-23T12:30:15.824Z,37.50
2019-03-23T12:32:48.563Z,34.90
2019-03-23T12:35:21.815Z,35.70
2019-03-23T12:37:57.489Z,36.10
2019-03-23T12:40:30.241Z,34.53
2019-03-23T12:43:02.844Z,36.03
2019-03-23T12:45:35.715Z,31.90
2019-03-23T12:48:09.404Z,33.30
2019-03-23T12:50:42.203Z,32.37
2019-03-23T12:53:15.194Z,34.50
2019-03-23T12:55:47.833Z,35.77
2019-03-23T12:58:22.809Z,33.37
2019-03-23T13:00:55.182Z,34.50
2019-03-23T13:03:28.095Z,33.53
2019-03-23T13:06:00.738Z,32.93
2019-03-23T13:08:33.835Z,34.50
2019-03-23T13:11:06.614Z,31.30
2019-03-23T13:13:39.521Z,34.83
2019-03-23T13:16:12.440Z,34.20
2019-03-23T13:18:45.521Z,33.17
2019-03-23T13:21:18.181Z,32.47
2019-03-23T13:23:51.242Z,33.80
2019-03-23T13:26:24.019Z,33.30
2019-03-23T13:28:56.601Z,33.57
2019-03-23T13:31:29.289Z,33.37
2019-03-23T13:34:01.885Z,32.77
2019-03-23T13:36:34.523Z,33.43
2019-03-23T13:39:08.155Z,34.10
2019-03-23T13:41:47.374Z,34.80
2019-03-23T13:44:19.999Z,33.80
2019-03-23T13:46:52.628Z,32.50
2019-03-23T13:49:25.553Z,34.80
2019-03-23T13:51:58.217Z,34.20
2019-03-23T13:54:30.830Z,35.57
2019-03-23T13:57:03.491Z,33.40
2019-03-23T13:59:36.078Z,33.20
2019-03-23T14:02:09.370Z,33.37
2019-03-23T14:04:42.099Z,33.80
2019-03-23T14:07:14.712Z,35.67
2019-03-23T14:09:47.300Z,34.43
2019-03-23T14:12:20.537Z,33.70
2019-03-23T14:14:53.630Z,32.67
2019-03-23T14:17:26.267Z,34.97
2019-03-23T14:19:58.851Z,33.70
2019-03-23T14:22:31.853Z,31.17
2019-03-23T14:25:05.053Z,32.27
2019-03-23T14:27:39.792Z,30.63
2019-03-23T14:30:12.387Z,29.87
2019-03-23T14:32:45.082Z,29.40
2019-03-23T14:35:18.017Z,27.53
2019-03-23T14:37:50.982Z,28.13
2019-03-23T14:40:23.907Z,28.00
2019-03-23T14:42:56.596Z,26.23
2019-03-23T14:45:29.495Z,26.43
2019-03-23T14:48:02.451Z,27.43
2019-03-23T14:50:35.057Z,27.90
2019-03-23T14:53:07.854Z,28.40
2019-03-23T14:55:40.448Z,28.70
2019-03-23T14:58:13.374Z,29.03
2019-03-23T15:00:46.262Z,29.33
2019-03-23T15:03:19.242Z,28.80
2019-03-23T15:05:53.179Z,32.97
2019-03-23T15:08:26.249Z,33.27
2019-03-23T15:10:58.830Z,34.53
2019-03-23T15:13:31.787Z,36.17
2019-03-23T15:16:04.363Z,34.53
2019-03-23T15:18:36.989Z,33.50
2019-03-23T15:21:09.573Z,38.50
2019-03-23T15:23:42.942Z,34.80
2019-03-23T15:26:15.573Z,33.10
2019-03-23T15:28:48.436Z,31.00
2019-03-23T15:31:21.020Z,32.83
2019-03-23T15:33:53.953Z,31.17
2019-03-23T15:36:28.015Z,31.40
2019-03-23T15:39:01.327Z,32.43
2019-03-23T15:41:34.231Z,32.57
2019-03-23T15:44:07.140Z,31.37
2019-03-23T15:46:43.758Z,33.33
2019-03-23T15:49:16.411Z,30.40
2019-03-23T15:51:49.471Z,31.90
2019-03-23T15:54:22.377Z,31.60
2019-03-23T15:56:55.011Z,31.20
2019-03-23T15:59:28.474Z,29.97
2019-03-23T16:02:02.141Z,32.30
2019-03-23T16:04:34.770Z,32.30
2019-03-23T16:07:08.015Z,32.23
2019-03-23T16:09:41.551Z,30.53
2019-03-23T16:12:14.165Z,31.80
2019-03-23T16:14:46.835Z,33.10
2019-03-23T16:17:19.437Z,33.00
2019-03-23T16:19:52.122Z,32.40
2019-03-23T16:22:24.786Z,33.53
2019-03-23T16:24:57.810Z,31.30
2019-03-23T16:27:30.442Z,29.80
2019-03-23T16:30:03.054Z,32.10
2019-03-23T16:32:35.839Z,31.87
2019-03-23T16:35:09.160Z,28.50
2019-03-23T16:37:41.797Z,29.80
2019-03-23T16:40:14.544Z,29.90
2019-03-23T16:42:47.585Z,28.77
2019-03-23T16:45:20.187Z,28.80
2019-03-23T16:47:52.824Z,26.97
2019-03-23T16:50:25.426Z,52.40
2019-03-23T16:52:58.964Z,27.10
2019-03-23T16:55:31.571Z,26.50
2019-03-23T16:58:04.525Z,25.80
2019-03-23T17:00:40.385Z,27.33
2019-03-23T17:03:13.411Z,26.03
2019-03-23T17:05:46.406Z,26.50
2019-03-23T17:08:19.054Z,24.33
2019-03-23T17:10:51.820Z,27.60
2019-03-23T17:13:24.762Z,24.10
2019-03-23T17:15:57.649Z,23.10
2019-03-23T17:18:30.317Z,21.93
2019-03-23T17:21:02.944Z,22.73
2019-03-23T17:23:35.594Z,22.90
2019-03-23T17:26:08.199Z,21.23
2019-03-23T17:28:40.843Z,22.90
2019-03-23T17:31:13.789Z,22.97
2019-03-23T17:33:49.861Z,25.87
2019-03-23T17:36:22.464Z,22.13
2019-03-23T17:38:55.129Z,22.00
2019-03-23T17:41:27.870Z,21.60
2019-03-23T17:46:39.128Z,24.83
2019-03-23T17:49:11.740Z,23.10
2019-03-23T17:51:44.699Z,24.20
2019-03-23T17:54:17.318Z,23.30
2019-03-23T17:56:50.102Z,25.13
2019-03-23T17:59:23.088Z,24.30
2019-03-23T18:01:56.074Z,22.40
2019-03-23T18:04:29.372Z,21.80
2019-03-23T18:07:03.033Z,23.13
2019-03-23T18:09:35.629Z,23.50
2019-03-23T18:12:08.458Z,22.20
2019-03-23T18:14:41.179Z,23.00
2019-03-23T18:17:14.155Z,21.37
2019-03-23T18:19:46.776Z,23.37
2019-03-23T18:22:19.418Z,23.20
2019-03-23T18:24:52.297Z,23.27
2019-03-23T18:27:25.200Z,24.90
2019-03-23T18:29:57.810Z,24.53
2019-03-23T18:32:30.734Z,25.60
2019-03-23T18:35:03.405Z,23.87
2019-03-23T18:37:36.376Z,24.10
2019-03-23T18:40:09.108Z,23.57
2019-03-23T18:42:41.751Z,23.03
2019-03-23T18:45:14.366Z,24.13
2019-03-23T18:47:47.028Z,24.13
2019-03-23T18:50:20.023Z,24.73
2019-03-23T18:52:52.700Z,25.00
2019-03-23T18:55:26.001Z,23.37
2019-03-23T18:57:59.328Z,23.20
2019-03-23T19:00:37.707Z,25.20
2019-03-23T19:03:10.451Z,23.83
2019-03-23T19:05:43.387Z,23.57
2019-03-23T19:08:16.020Z,25.13
2019-03-23T19:10:55.872Z,24.33
2019-03-23T19:13:37.566Z,22.70
2019-03-23T19:16:07.882Z,22.97
2019-03-23T19:18:40.699Z,23.57
2019-03-23T19:21:13.622Z,23.77
2019-03-23T19:23:46.261Z,24.50
2019-03-23T19:26:19.212Z,23.33
2019-03-23T19:28:51.853Z,23.20
2019-03-23T19:31:24.588Z,22.03
2019-03-23T19:33:57.246Z,23.83
2019-03-23T19:36:29.897Z,25.07
2019-03-23T19:39:02.699Z,31.07
2019-03-23T19:41:35.382Z,25.57
2019-03-23T19:44:08.008Z,23.73
2019-03-23T19:47:11.660Z,23.37
2019-03-23T19:50:03.573Z,23.27
2019-03-23T19:52:36.186Z,24.17
2019-03-23T19:55:09.554Z,22.63
2019-03-23T19:57:42.500Z,23.97
2019-03-23T20:00:15.143Z,23.73
2019-03-23T20:02:47.805Z,23.73
2019-03-23T20:05:20.684Z,23.70
2019-03-23T20:08:09.728Z,24.50
2019-03-23T20:11:19.589Z,24.27
2019-03-23T20:14:03.043Z,24.40
2019-03-23T20:17:09.800Z,24.80
2019-03-23T20:20:19.963Z,24.40
2019-03-23T20:22:43.661Z,24.13
2019-03-23T20:25:31.847Z,23.93
2019-03-23T20:28:29.506Z,24.20
2019-03-23T20:31:00.629Z,25.13
2019-03-23T20:34:05.896Z,24.60
2019-03-23T20:37:23.299Z,23.63
2019-03-23T20:39:56.161Z,24.00
2019-03-23T20:42:28.832Z,25.87
2019-03-23T20:45:01.598Z,25.10
2019-03-23T20:47:34.776Z,25.30
2019-03-23T20:50:08.553Z,25.57
2019-03-23T20:52:41.511Z,28.62
2019-03-23T20:55:29.313Z,27.93
2019-03-23T20:58:02.072Z,27.52
2019-03-23T21:00:36.579Z,27.47
2019-03-23T21:03:09.258Z,25.95
2019-03-23T21:05:41.900Z,27.48
2019-03-23T21:08:14.560Z,27.60
2019-03-23T21:10:47.440Z,27.58
2019-03-23T21:13:20.425Z,25.03
2019-03-23T21:15:53.299Z,26.20
2019-03-23T21:18:26.372Z,25.37
2019-03-23T21:20:59.110Z,24.70
2019-03-23T21:23:31.773Z,26.82
2019-03-23T21:26:04.367Z,26.57
2019-03-23T21:28:37.019Z,27.42
2019-03-23T21:31:09.658Z,27.90
2019-03-23T21:33:42.490Z,26.30
2019-03-23T21:36:15.952Z,26.60
2019-03-23T21:38:48.600Z,25.70
2019-03-23T21:41:21.300Z,23.50
2019-03-23T21:43:54.280Z,25.65
2019-03-23T21:46:27.169Z,25.80
2019-03-23T21:48:59.855Z,27.17
2019-03-23T21:51:32.591Z,26.15
2019-03-23T21:54:08.083Z,26.05
2019-03-23T21:56:40.714Z,26.52
2019-03-23T21:59:13.669Z,24.85
2019-03-23T22:01:46.465Z,25.35
2019-03-23T22:04:19.178Z,27.73
2019-03-23T22:06:51.797Z,26.62
2019-03-23T22:09:24.462Z,25.05
2019-03-23T22:11:57.443Z,26.82
2019-03-23T22:14:41.143Z,26.87
2019-03-23T22:17:05.988Z,30.27
2019-03-23T22:22:17.351Z,28.15
2019-03-23T22:24:50.041Z,26.77
2019-03-23T22:27:22.670Z,29.55
2019-03-23T22:29:55.353Z,33.55
2019-03-23T22:32:28.398Z,32.73
2019-03-23T22:35:01.378Z,31.85
2019-03-23T22:37:34.374Z,29.95
2019-03-23T22:40:08.193Z,30.15
2019-03-23T22:42:40.819Z,29.52
2019-03-23T22:45:13.572Z,27.05
2019-03-23T22:47:46.463Z,28.05
2019-03-23T22:50:19.477Z,26.20
2019-03-23T22:52:52.111Z,26.77
2019-03-23T22:55:24.870Z,26.45
2019-03-23T22:57:57.953Z,28.55
2019-03-23T23:00:48.187Z,27.93
2019-03-23T23:03:21.205Z,25.88
2019-03-23T23:05:53.929Z,26.48
2019-03-23T23:08:26.547Z,28.15
2019-03-23T23:10:59.547Z,28.27
2019-03-23T23:13:32.231Z,30.97
2019-03-23T23:16:05.524Z,31.07
2019-03-23T23:18:38.162Z,32.33
2019-03-23T23:21:12.029Z,31.90
2019-03-23T23:23:44.653Z,31.17
2019-03-23T23:26:18.035Z,31.02
2019-03-23T23:28:50.674Z,29.25
2019-03-23T23:31:23.466Z,28.52
2019-03-23T23:33:56.103Z,28.70
2019-03-23T23:36:29.216Z,28.70
2019-03-23T23:39:01.849Z,29.85
2019-03-23T23:41:34.794Z,27.30
2019-03-23T23:44:07.405Z,29.75
2019-03-23T23:46:40.057Z,31.42
2019-03-23T23:49:12.773Z,30.17
2019-03-23T23:51:50.031Z,30.77
2019-03-23T23:54:20.133Z,30.97
2019-03-23T23:56:53.806Z,37.00
2019-03-23T23:59:27.791Z,35.38
